createdAt,value
2019-04-23T00:03:54.796Z,6.07
2019-04-23T00:06:23.561Z,5.67
2019-04-23T00:13:43.899Z,6.67
2019-04-23T00:16:17.022Z,6.73
2019-04-23T00:21:16.675Z,6.23
2019-04-23T00:23:46.447Z,6.57
2019-04-23T00:26:20.277Z,6.50
2019-04-23T00:28:35.296Z,6.27
2019-04-23T00:31:18.535Z,5.50
2019-04-23T00:35:50.109Z,5.73
2019-04-23T00:38:28.740Z,6.00
2019-04-23T00:41:02.774Z,5.87
2019-04-23T00:43:23.005Z,6.50
2019-04-23T00:48:17.074Z,5.83
2019-04-23T00:50:46.528Z,6.57
2019-04-23T00:53:05.853Z,5.83
2019-04-23T00:55:28.454Z,5.70
2019-04-23T00:58:10.403Z,5.87
2019-04-23T01:00:40.348Z,6.27
2019-04-23T01:03:01.745Z,5.93
2019-04-23T01:05:24.054Z,6.10
2019-04-23T01:07:45.705Z,6.00
2019-04-23T01:10:20.580Z,5.83
2019-04-23T01:12:51.699Z,5.63
2019-04-23T01:15:24.229Z,5.63
2019-04-23T01:17:49.296Z,5.53
2019-04-23T01:20:14.235Z,5.93
2019-04-23T01:22:23.271Z,5.80
2019-04-23T01:25:15.179Z,5.43
2019-04-23T01:30:27.966Z,5.80
2019-04-23T01:32:54.633Z,4.97
2019-04-23T01:35:20.378Z,5.10
2019-04-23T01:40:24.000Z,5.77
2019-04-23T01:45:15.354Z,6.33
2019-04-23T01:47:38.835Z,6.17
2019-04-23T01:50:08.186Z,6.20
2019-04-23T01:52:38.101Z,6.47
2019-04-23T01:55:02.997Z,5.90
2019-04-23T01:57:30.822Z,5.57
2019-04-23T01:59:58.303Z,6.53
2019-04-23T02:02:19.445Z,6.87
2019-04-23T02:04:45.722Z,6.00
2019-04-23T02:07:12.792Z,6.67
2019-04-23T02:09:42.227Z,6.83
2019-04-23T02:12:07.132Z,6.60
2019-04-23T02:14:34.936Z,6.07
2019-04-23T02:17:00.111Z,6.33
2019-04-23T02:19:30.508Z,6.53
2019-04-23T02:22:03.637Z,6.20
2019-04-23T02:24:34.040Z,6.53
2019-04-23T02:26:50.475Z,6.77
2019-04-23T02:34:31.202Z,6.53
2019-04-23T02:36:59.848Z,6.73
2019-04-23T02:39:13.017Z,6.80
2019-04-23T02:41:53.886Z,7.13
2019-04-23T02:46:31.314Z,6.80
2019-04-23T02:49:15.226Z,6.60
2019-04-23T02:54:08.571Z,6.40
2019-04-23T02:58:53.449Z,6.80
2019-04-23T03:03:52.690Z,5.97
2019-04-23T03:08:42.290Z,6.93
2019-04-23T03:18:53.785Z,6.50
2019-04-23T03:21:31.318Z,6.70
2019-04-23T03:24:11.345Z,6.00
2019-04-23T03:29:10.754Z,6.73
2019-04-23T03:38:48.734Z,6.63
2019-04-23T03:41:23.500Z,6.90
2019-04-23T03:43:41.225Z,6.30
2019-04-23T03:46:24.262Z,7.07
2019-04-23T03:48:42.141Z,6.63
2019-04-23T03:51:11.577Z,6.83
2019-04-23T03:53:44.782Z,7.13
2019-04-23T03:56:05.725Z,7.00
2019-04-23T04:00:58.919Z,7.37
2019-04-23T04:03:48.200Z,6.47
2019-04-23T04:05:57.909Z,7.00
2019-04-23T04:10:52.385Z,7.30
2019-04-23T04:13:07.194Z,7.33
2019-04-23T04:15:48.931Z,7.30
2019-04-23T04:20:41.995Z,6.70
2019-04-23T04:25:33.628Z,7.97
2019-04-23T04:30:21.865Z,6.80
2019-04-23T04:32:58.748Z,6.80
2019-04-23T04:40:10.859Z,6.03
2019-04-23T04:43:02.223Z,7.03
2019-04-23T04:52:39.901Z,7.63
2019-04-23T04:54:50.188Z,7.77
2019-04-23T04:57:19.957Z,7.07
2019-04-23T04:59:45.792Z,6.50
2019-04-23T05:02:20.498Z,6.20
2019-04-23T05:04:44.126Z,6.13
2019-04-23T05:07:13.849Z,6.03
2019-04-23T05:09:43.317Z,6.10
2019-04-23T05:12:04.501Z,5.63
2019-04-23T05:14:45.630Z,6.23
2019-04-23T05:16:50.611Z,5.62
2019-04-23T05:24:08.591Z,5.93
2019-04-23T05:26:51.763Z,5.72
2019-04-23T05:31:30.971Z,6.10
2019-04-23T05:34:05.961Z,5.95
2019-04-23T05:36:43.673Z,6.05
2019-04-23T05:41:26.957Z,5.80
2019-04-23T05:43:46.745Z,5.70
2019-04-23T05:46:22.244Z,5.87
2019-04-23T05:48:37.630Z,6.22
2019-04-23T05:51:16.352Z,5.93
2019-04-23T05:53:39.605Z,5.55
2019-04-23T05:56:01.968Z,5.97
2019-04-23T05:58:28.616Z,5.87
2019-04-23T06:03:56.546Z,6.75
2019-04-23T06:06:26.194Z,6.10
2019-04-23T06:08:49.341Z,5.85
2019-04-23T06:11:26.002Z,6.15
2019-04-23T06:13:48.079Z,5.80
2019-04-23T06:16:16.351Z,5.93
2019-04-23T06:18:38.542Z,6.18
2019-04-23T06:21:02.604Z,5.87
2019-04-23T06:28:22.373Z,6.22
2019-04-23T06:30:54.291Z,6.25
2019-04-23T06:33:22.806Z,5.90
2019-04-23T06:35:46.901Z,5.90
2019-04-23T06:40:40.465Z,6.05
2019-04-23T06:43:04.792Z,6.20
2019-04-23T06:45:34.164Z,6.03
2019-04-23T06:48:12.035Z,6.12
2019-04-23T06:50:30.138Z,6.00
2019-04-23T06:52:51.382Z,6.00
2019-04-23T06:55:20.831Z,5.72
2019-04-23T06:57:52.023Z,5.72
2019-04-23T07:00:19.798Z,5.60
2019-04-23T07:02:44.517Z,5.72
2019-04-23T07:05:16.165Z,5.45
2019-04-23T07:07:54.696Z,5.85
2019-04-23T07:09:59.382Z,5.57
2019-04-23T07:12:36.465Z,5.60
2019-04-23T07:14:55.416Z,5.28
2019-04-23T07:17:18.157Z,5.60
2019-04-23T07:19:48.423Z,5.18
2019-04-23T07:22:18.902Z,5.53
2019-04-23T07:25:03.132Z,5.90
2019-04-23T07:27:14.865Z,5.57
2019-04-23T07:29:50.113Z,6.35
2019-04-23T07:32:05.384Z,5.65
2019-04-23T07:34:31.918Z,6.00
2019-04-23T07:37:00.143Z,5.93
2019-04-23T07:45:17.138Z,5.90
2019-04-23T07:47:55.303Z,5.65
2019-04-23T07:50:28.258Z,5.37
2019-04-23T07:52:51.579Z,6.10
2019-04-23T07:55:20.806Z,5.50
2019-04-23T07:57:36.717Z,5.55
2019-04-23T08:00:00.842Z,4.97
2019-04-23T08:02:31.753Z,5.07
2019-04-23T08:05:21.314Z,5.03
2019-04-23T08:09:56.574Z,5.00
2019-04-23T08:14:48.141Z,4.62
2019-04-23T08:17:10.822Z,4.62
2019-04-23T08:19:51.335Z,4.80
2019-04-23T08:22:12.833Z,4.70
2019-04-23T08:24:38.845Z,4.20
2019-04-23T08:26:59.780Z,4.10
2019-04-23T08:29:26.846Z,4.90
2019-04-23T08:34:34.474Z,4.00
2019-04-23T08:36:58.212Z,3.90
2019-04-23T08:39:21.100Z,4.12
2019-04-23T08:41:59.629Z,3.87
2019-04-23T08:44:44.696Z,4.20
2019-04-23T08:47:15.588Z,4.05
2019-04-23T08:49:40.377Z,4.12
2019-04-23T08:52:07.088Z,4.00
2019-04-23T08:54:46.404Z,3.85
2019-04-23T08:57:07.423Z,4.22
2019-04-23T08:59:35.075Z,4.45
2019-04-23T09:02:09.304Z,4.20
2019-04-23T09:04:17.966Z,4.03
2019-04-23T09:06:45.366Z,3.67
2019-04-23T09:09:13.133Z,4.22
2019-04-23T09:14:00.959Z,3.80
2019-04-23T09:16:36.035Z,4.07
2019-04-23T09:19:04.065Z,4.25
2019-04-23T09:21:27.978Z,3.85
2019-04-23T09:23:54.164Z,4.20
2019-04-23T09:26:11.030Z,4.85
2019-04-23T09:31:42.025Z,4.50
2019-04-23T09:39:00.381Z,4.57
2019-04-23T09:41:26.994Z,5.25
2019-04-23T09:44:14.896Z,4.75
2019-04-23T09:46:44.038Z,5.30
2019-04-23T09:49:14.985Z,4.87
2019-04-23T09:54:09.368Z,5.05
2019-04-23T09:56:37.903Z,4.95
2019-04-23T09:59:10.968Z,4.97
2019-04-23T10:03:43.081Z,4.87
2019-04-23T10:06:04.128Z,5.07
2019-04-23T10:08:29.611Z,4.57
2019-04-23T10:10:49.460Z,4.82
2019-04-23T10:13:17.831Z,4.80
2019-04-23T10:15:46.090Z,4.97
2019-04-23T10:18:10.084Z,4.85
2019-04-23T10:20:38.394Z,5.37
2019-04-23T10:23:04.187Z,5.65
2019-04-23T10:25:31.871Z,5.20
2019-04-23T10:28:01.618Z,5.18
2019-04-23T10:30:24.320Z,5.22
2019-04-23T10:32:51.686Z,4.90
2019-04-23T10:35:25.715Z,4.78
2019-04-23T10:37:52.895Z,5.32
2019-04-23T10:40:17.606Z,4.95
2019-04-23T10:42:43.774Z,5.20
2019-04-23T10:45:23.809Z,5.22
2019-04-23T10:48:26.602Z,5.55
2019-04-23T10:55:54.113Z,5.12
2019-04-23T10:58:15.757Z,5.53
2019-04-23T11:00:50.998Z,5.93
2019-04-23T11:03:18.565Z,5.00
2019-04-23T11:08:08.161Z,5.37
2019-04-23T11:10:25.950Z,5.45
2019-04-23T11:12:48.941Z,5.55
2019-04-23T11:17:47.627Z,5.47
2019-04-23T11:20:30.022Z,5.10
2019-04-23T11:22:45.144Z,5.00
2019-04-23T11:27:42.476Z,5.20
2019-04-23T11:30:23.779Z,5.40
2019-04-23T11:32:47.119Z,5.50
2019-04-23T11:35:17.641Z,5.47
2019-04-23T11:37:43.861Z,5.72
2019-04-23T11:44:52.161Z,5.43
2019-04-23T11:47:41.677Z,5.18
2019-04-23T11:54:35.907Z,5.25
2019-04-23T11:57:22.254Z,4.97
2019-04-23T11:59:39.277Z,5.32
2019-04-23T12:02:00.791Z,5.07
2019-04-23T12:07:13.617Z,5.65
2019-04-23T12:09:53.908Z,5.37
2019-04-23T12:12:17.178Z,5.40
2019-04-23T12:14:47.175Z,5.60
2019-04-23T12:17:26.334Z,6.10
2019-04-23T12:22:15.280Z,5.87
2019-04-23T12:24:58.574Z,6.72
2019-04-23T12:29:35.390Z,6.20
2019-04-23T12:32:18.087Z,6.57
2019-04-23T12:34:36.316Z,5.87
2019-04-23T12:39:35.898Z,5.53
2019-04-23T12:41:57.237Z,5.28
2019-04-23T12:44:14.905Z,5.85
2019-04-23T12:46:48.230Z,5.68
2019-04-23T12:49:21.333Z,5.93
2019-04-23T12:51:43.361Z,6.05
2019-04-23T12:54:06.989Z,6.03
2019-04-23T12:56:43.955Z,5.90
2019-04-23T12:58:50.969Z,6.80
2019-04-23T13:01:27.553Z,6.72
2019-04-23T13:03:45.801Z,6.40
2019-04-23T13:06:17.535Z,6.25
2019-04-23T13:08:45.978Z,5.85
2019-04-23T13:11:13.963Z,6.93
2019-04-23T13:16:12.718Z,6.93
2019-04-23T13:21:02.091Z,6.40
2019-04-23T13:30:54.544Z,6.60
2019-04-23T13:33:30.724Z,6.07
2019-04-23T13:35:55.331Z,6.12
2019-04-23T13:43:20.187Z,6.32
2019-04-23T13:45:56.454Z,6.30
2019-04-23T13:50:43.294Z,6.30
2019-04-23T13:53:21.060Z,6.45
2019-04-23T13:55:14.681Z,6.45
2019-04-23T14:00:25.073Z,6.30
2019-04-23T14:02:42.523Z,6.87
2019-04-23T14:05:12.351Z,6.70
2019-04-23T14:07:50.037Z,6.35
2019-04-23T14:10:18.246Z,6.03
2019-04-23T14:12:42.029Z,6.07
2019-04-23T14:15:04.315Z,6.43
2019-04-23T14:18:02.897Z,6.15
2019-04-23T14:19:59.889Z,6.37
2019-04-23T14:25:04.789Z,6.18
2019-04-23T14:27:43.046Z,6.47
2019-04-23T14:29:59.630Z,6.57
2019-04-23T14:32:22.350Z,6.43
2019-04-23T14:34:54.136Z,6.17
2019-04-23T14:37:11.892Z,6.40
2019-04-23T14:39:42.844Z,6.50
2019-04-23T14:42:20.671Z,6.32
2019-04-23T14:44:31.217Z,6.18
2019-04-23T14:54:35.889Z,6.40
2019-04-23T14:56:51.547Z,5.60
2019-04-23T14:59:21.505Z,6.40
2019-04-23T15:01:40.087Z,5.85
2019-04-23T15:04:01.845Z,5.57
2019-04-23T15:14:06.081Z,5.75
2019-04-23T15:16:31.703Z,6.10
2019-04-23T15:19:08.242Z,5.68
2019-04-23T15:24:14.086Z,5.25
2019-04-23T15:28:17.742Z,5.47
2019-04-23T15:31:10.062Z,5.40
2019-04-23T15:33:49.146Z,5.37
2019-04-23T15:36:36.010Z,5.10
2019-04-23T15:38:45.455Z,5.67
2019-04-23T15:41:02.643Z,5.53
2019-04-23T15:43:22.854Z,5.30
2019-04-23T15:45:59.081Z,5.57
2019-04-23T15:48:15.607Z,5.53
2019-04-23T15:50:43.559Z,5.70
2019-04-23T15:53:04.762Z,5.37
2019-04-23T16:00:31.176Z,5.27
2019-04-23T16:02:32.258Z,5.40
2019-04-23T16:05:00.128Z,5.33
2019-04-23T16:07:41.365Z,5.70
2019-04-23T16:10:26.090Z,5.60
2019-04-23T16:12:56.717Z,5.30
2019-04-23T16:15:21.997Z,5.10
2019-04-23T16:17:51.134Z,5.30
2019-04-23T16:22:39.672Z,5.00
2019-04-23T16:27:34.079Z,5.27
2019-04-23T16:30:14.347Z,5.13
2019-04-23T16:32:39.807Z,5.13
2019-04-23T16:35:17.966Z,5.13
2019-04-23T16:37:39.133Z,5.33
2019-04-23T16:40:01.618Z,5.07
2019-04-23T16:42:29.861Z,5.07
2019-04-23T16:45:07.516Z,5.43
2019-04-23T16:47:24.217Z,5.87
2019-04-23T16:50:03.277Z,5.57
2019-04-23T16:52:20.103Z,5.33
2019-04-23T16:54:58.361Z,5.30
2019-04-23T16:59:46.828Z,5.07
2019-04-23T17:09:38.831Z,4.47
2019-04-23T17:11:59.530Z,4.67
2019-04-23T17:14:21.677Z,5.00
2019-04-23T17:16:44.385Z,4.70
2019-04-23T17:19:20.197Z,4.90
2019-04-23T17:21:44.068Z,5.20
2019-04-23T17:26:36.137Z,5.40
2019-04-23T17:29:09.867Z,5.23
2019-04-23T17:31:35.474Z,5.27
2019-04-23T17:34:12.544Z,5.03
2019-04-23T17:41:31.207Z,5.97
2019-04-23T17:46:52.317Z,5.47
2019-04-23T17:49:15.333Z,5.70
2019-04-23T17:51:48.821Z,5.60
2019-04-23T17:56:55.833Z,5.97
2019-04-23T18:01:41.905Z,5.70
2019-04-23T18:09:00.783Z,5.30
2019-04-23T18:13:54.862Z,5.43
2019-04-23T18:16:21.258Z,5.17
2019-04-23T18:18:53.340Z,5.30
2019-04-23T18:21:21.353Z,4.93
2019-04-23T18:23:42.445Z,5.50
2019-04-23T18:26:04.062Z,5.27
2019-04-23T18:28:37.346Z,5.57
2019-04-23T18:31:10.649Z,5.30
2019-04-23T18:36:18.444Z,5.30
2019-04-23T18:38:57.079Z,5.50
2019-04-23T18:41:29.535Z,5.53
2019-04-23T18:43:57.119Z,5.10
2019-04-23T18:46:14.724Z,5.17
2019-04-23T18:48:43.882Z,5.10
2019-04-23T18:53:40.869Z,5.30
2019-04-23T18:58:38.268Z,5.87
2019-04-23T19:01:00.056Z,5.10
2019-04-23T19:03:34.356Z,5.40
2019-04-23T19:06:10.605Z,5.50
2019-04-23T19:10:51.195Z,5.70
2019-04-23T19:13:24.928Z,5.60
2019-04-23T19:15:42.290Z,5.47
2019-04-23T19:18:14.240Z,5.47
2019-04-23T19:20:56.163Z,5.23
2019-04-23T19:25:30.458Z,5.40
2019-04-23T19:28:09.168Z,5.50
2019-04-23T19:30:43.304Z,5.20
2019-04-23T19:33:03.966Z,5.73
2019-04-23T19:35:51.837Z,5.23
2019-04-23T19:40:28.291Z,5.83
2019-04-23T19:42:55.199Z,5.80
2019-04-23T19:45:20.532Z,5.40
2019-04-23T19:47:56.868Z,5.70
2019-04-23T19:50:17.943Z,5.30
2019-04-23T19:52:59.458Z,5.57
2019-04-23T19:57:42.658Z,5.60
2019-04-23T19:59:55.245Z,5.50
2019-04-23T20:02:38.648Z,5.37
2019-04-23T20:04:56.108Z,5.33
2019-04-23T20:12:13.954Z,5.43
2019-04-23T20:17:31.721Z,5.27
2019-04-23T20:19:49.443Z,5.40
2019-04-23T20:22:05.775Z,5.37
2019-04-23T20:24:40.830Z,5.80
2019-04-23T20:27:06.177Z,5.60
2019-04-23T20:29:54.727Z,5.27
2019-04-23T20:34:31.132Z,5.03
2019-04-23T20:39:25.121Z,5.37
2019-04-23T20:42:07.765Z,5.73
2019-04-23T20:44:23.537Z,5.70
2019-04-23T20:46:52.502Z,5.07
2019-04-23T20:49:12.454Z,5.77
2019-04-23T20:51:41.250Z,5.17
2019-04-23T20:54:12.371Z,5.43
2019-04-23T20:56:39.028Z,6.07
2019-04-23T20:59:00.193Z,5.33
2019-04-23T21:01:34.659Z,5.50
2019-04-23T21:03:56.645Z,5.63
2019-04-23T21:06:45.890Z,5.57
2019-04-23T21:09:11.692Z,5.63
2019-04-23T21:11:18.797Z,5.67
2019-04-23T21:16:13.259Z,5.70
2019-04-23T21:21:01.563Z,5.77
2019-04-23T21:23:29.529Z,5.73
2019-04-23T21:25:56.087Z,5.50
2019-04-23T21:28:38.642Z,6.30
2019-04-23T21:33:24.397Z,5.73
2019-04-23T21:38:56.673Z,6.13
2019-04-23T21:41:17.207Z,5.93
2019-04-23T21:43:57.229Z,5.93
2019-04-23T21:46:15.808Z,5.80
2019-04-23T21:48:44.059Z,6.20
2019-04-23T21:51:23.699Z,5.73
2019-04-23T21:53:25.861Z,6.20
2019-04-23T21:56:02.829Z,6.17
2019-04-23T21:58:25.217Z,6.57
2019-04-23T22:00:58.979Z,6.03
2019-04-23T22:03:19.895Z,6.20
2019-04-23T22:05:49.264Z,6.37
2019-04-23T22:08:17.357Z,6.57
2019-04-23T22:10:31.916Z,6.80
2019-04-23T22:13:09.526Z,6.47
2019-04-23T22:15:32.924Z,7.10
2019-04-23T22:17:49.571Z,6.27
2019-04-23T22:20:25.811Z,6.40
2019-04-23T22:25:13.078Z,6.50
2019-04-23T22:27:48.165Z,6.00
2019-04-23T22:30:06.098Z,7.10
2019-04-23T22:37:29.977Z,6.80
2019-04-23T22:39:58.968Z,6.57
2019-04-23T22:42:41.120Z,6.30
2019-04-23T22:45:05.587Z,6.47
2019-04-23T22:47:09.784Z,6.53
2019-04-23T22:52:18.779Z,6.73
2019-04-23T22:54:45.230Z,6.80
2019-04-23T22:57:04.204Z,7.00
2019-04-23T23:02:15.062Z,6.90
2019-04-23T23:04:51.627Z,7.00
2019-04-23T23:07:20.170Z,6.93
2019-04-23T23:09:43.522Z,6.80
2019-04-23T23:12:33.384Z,6.90
2019-04-23T23:14:35.302Z,7.43
2019-04-23T23:17:02.220Z,6.90
2019-04-23T23:22:11.834Z,7.07
2019-04-23T23:24:20.562Z,7.70
2019-04-23T23:26:55.998Z,7.90
2019-04-23T23:29:15.459Z,7.50
2019-04-23T23:31:52.109Z,6.90
2019-04-23T23:34:13.641Z,7.33
2019-04-23T23:39:18.188Z,7.43
2019-04-23T23:41:31.861Z,6.90
2019-04-23T23:44:20.898Z,7.10
2019-04-23T23:46:27.831Z,7.13
2019-04-23T23:58:51.795Z,7.70
